Time;durP1;ratioP1;P1;durP2;ratioP2;P2;SDS_P1;SDS_P2;PMS_P1;PMS_P2;Temp;Humidity;BMP_temperature;BMP_pressure;BME280_temperature;BME280_humidity;BME280_pressure;Samples;Min_cycle;Max_cycle;Signal;HPM_P1;HPM_P2
2022/04/07 00:00:23;;;;;;;0.10;0.10;;;;;;;;;;4178883;28;20488;-34
2022/04/07 00:02:25;;;;;;;0.50;0.20;;;;;;;;;;4179202;28;20048;-34
2022/04/07 00:04:26;;;;;;;0.35;0.10;;;;;;;;;;4179011;28;20459;-34
2022/04/07 00:06:27;;;;;;;0.30;0.20;;;;;;;;;;4177895;28;20060;-34
2022/04/07 00:08:28;;;;;;;0.10;0.10;;;;;;;;;;4178711;28;20079;-34
2022/04/07 00:10:30;;;;;;;0.30;0.10;;;;;;;;;;4179177;28;20053;-34
2022/04/07 00:12:33;;;;;;;0.15;0.10;;;;;;;;;;4179382;28;20110;-34
2022/04/07 00:14:34;;;;;;;0.20;0.10;;;;;;;;;;4178836;28;20472;-34
2022/04/07 00:16:35;;;;;;;0.30;0.17;;;;;;;;;;4179092;28;20080;-34
2022/04/07 00:18:36;;;;;;;0.40;0.30;;;;;;;;;;4178802;28;20106;-34
2022/04/07 00:20:38;;;;;;;0.25;0.10;;;;;;;;;;4178760;28;20539;-34
2022/04/07 00:22:39;;;;;;;0.60;0.10;;;;;;;;;;4179060;28;20081;-34
2022/04/07 00:24:42;;;;;;;0.25;0.10;;;;;;;;;;4178356;28;20384;-34
2022/04/07 00:26:43;;;;;;;1.17;0.10;;;;;;;;;;4179052;28;20061;-34
2022/04/07 00:28:44;;;;;;;1.55;0.10;;;;;;;;;;4178996;28;20056;-34
2022/04/07 00:30:45;;;;;;;0.30;0.20;;;;;;;;;;4178759;28;20053;-34
2022/04/07 00:32:48;;;;;;;0.13;0.10;;;;;;;;;;4178809;28;20119;-34
2022/04/07 00:34:54;;;;;;;0.32;0.15;;;;;;;;;;4178936;28;20052;-34
2022/04/07 00:36:55;;;;;;;0.10;0.10;;;;;;;;;;4178830;28;20408;-34
2022/04/07 00:38:56;;;;;;;0.98;0.20;;;;;;;;;;4178210;28;20385;-34
2022/04/07 00:40:57;;;;;;;0.38;0.10;;;;;;;;;;4178879;28;20056;-43
2022/04/07 00:42:59;;;;;;;0.10;0.10;;;;;;;;;;4181443;28;20071;-43
2022/04/07 00:45:00;;;;;;;0.10;0.10;;;;;;;;;;4182013;28;20049;-44
2022/04/07 00:47:01;;;;;;;0.05;0.05;;;;;;;;;;4181878;28;20056;-43
2022/04/07 00:49:03;;;;;;;0.10;0.10;;;;;;;;;;4181577;28;20060;-42
2022/04/07 00:51:05;;;;;;;0.52;0.10;;;;;;;;;;4181713;28;20079;-41
2022/04/07 00:53:06;;;;;;;0.10;0.10;;;;;;;;;;4181890;28;20053;-43
2022/04/07 00:55:10;;;;;;;0.10;0.10;;;;;;;;;;4181527;28;20193;-42
2022/04/07 00:57:11;;;;;;;0.65;0.20;;;;;;;;;;4181792;28;20657;-44
2022/04/07 00:59:16;;;;;;;0.20;0.10;;;;;;;;;;4180109;28;20206;-43
2022/04/07 01:01:20;;;;;;;0.25;0.10;;;;;;;;;;4181891;28;20049;-41
2022/04/07 01:03:21;;;;;;;0.20;0.20;;;;;;;;;;4181692;28;20099;-40
2022/04/07 01:05:23;;;;;;;0.73;0.10;;;;;;;;;;4181921;28;20123;-41
2022/04/07 01:07:25;;;;;;;0.38;0.15;;;;;;;;;;4181625;28;20416;-44
2022/04/07 01:09:26;;;;;;;0.20;0.13;;;;;;;;;;4181107;28;20126;-42
2022/04/07 01:11:29;;;;;;;0.28;0.10;;;;;;;;;;4180075;28;20049;-41
2022/04/07 01:14:03;;;;;;;0.20;0.10;;;;;;;;;;4181666;28;20073;-41
2022/04/07 01:16:04;;;;;;;0.22;0.10;;;;;;;;;;4180209;28;20099;-41
2022/04/07 01:18:06;;;;;;;0.05;0.00;;;;;;;;;;4181173;28;20443;-41
2022/04/07 01:20:07;;;;;;;0.20;0.10;;;;;;;;;;4181271;28;20122;-40
2022/04/07 01:22:09;;;;;;;0.10;0.10;;;;;;;;;;4181666;28;20057;-41
2022/04/07 01:24:12;;;;;;;0.60;0.13;;;;;;;;;;4180746;28;20075;-42
2022/04/07 01:26:14;;;;;;;0.50;0.10;;;;;;;;;;4181646;28;20103;-41
2022/04/07 01:28:15;;;;;;;0.35;0.10;;;;;;;;;;4179876;28;20412;-42
2022/04/07 01:30:17;;;;;;;0.10;0.10;;;;;;;;;;4181254;28;20115;-42
2022/04/07 01:32:39;;;;;;;0.20;0.10;;;;;;;;;;4180967;28;20107;-42
2022/04/07 01:34:40;;;;;;;0.13;0.10;;;;;;;;;;4181321;28;20060;-42
2022/04/07 01:36:45;;;;;;;0.00;0.00;;;;;;;;;;4181052;28;20049;-42
2022/04/07 01:38:47;;;;;;;0.20;0.20;;;;;;;;;;4180810;28;20057;-42
2022/04/07 01:40:49;;;;;;;0.10;0.10;;;;;;;;;;4180014;28;20045;-42
2022/04/07 01:42:53;;;;;;;0.20;0.10;;;;;;;;;;4181200;28;20060;-42
2022/04/07 01:44:55;;;;;;;0.20;0.10;;;;;;;;;;4179620;28;20106;-42
2022/04/07 01:46:56;;;;;;;0.65;0.17;;;;;;;;;;4179708;28;20106;-42
2022/04/07 01:48:58;;;;;;;0.57;0.10;;;;;;;;;;4179705;28;20052;-42
2022/04/07 01:50:59;;;;;;;0.32;0.10;;;;;;;;;;4180918;28;20053;-42
2022/04/07 01:53:01;;;;;;;0.10;0.10;;;;;;;;;;4179120;28;20107;-41
2022/04/07 01:55:03;;;;;;;0.22;0.20;;;;;;;;;;4180324;28;20305;-42
2022/04/07 01:57:04;;;;;;;0.10;0.10;;;;;;;;;;4180828;28;20103;-42
2022/04/07 01:59:07;;;;;;;0.65;0.10;;;;;;;;;;4180447;28;20412;-42
2022/04/07 02:01:08;;;;;;;0.05;0.05;;;;;;;;;;4179287;28;20111;-41
2022/04/07 02:03:10;;;;;;;0.10;0.10;;;;;;;;;;4180583;28;20171;-42
2022/04/07 02:05:12;;;;;;;0.10;0.10;;;;;;;;;;4180580;28;20499;-41
2022/04/07 02:07:13;;;;;;;0.00;0.00;;;;;;;;;;4180679;28;20061;-41
2022/04/07 02:09:14;;;;;;;0.13;0.10;;;;;;;;;;4178759;28;20053;-41
2022/04/07 02:11:15;;;;;;;0.32;0.20;;;;;;;;;;4180593;28;20477;-42
2022/04/07 02:13:16;;;;;;;0.60;0.30;;;;;;;;;;4180572;28;20366;-42
2022/04/07 02:15:18;;;;;;;0.17;0.15;;;;;;;;;;4180535;28;20106;-41
2022/04/07 02:17:22;;;;;;;0.68;0.10;;;;;;;;;;4180496;28;20106;-42
2022/04/07 02:19:23;;;;;;;0.10;0.10;;;;;;;;;;4180426;28;20098;-42
2022/04/07 02:21:24;;;;;;;0.10;0.10;;;;;;;;;;4180303;28;20053;-42
2022/04/07 02:23:27;;;;;;;0.10;0.10;;;;;;;;;;4180111;28;20423;-42
2022/04/07 02:25:29;;;;;;;0.10;0.10;;;;;;;;;;4180633;28;20053;-41
2022/04/07 02:27:49;;;;;;;0.30;0.13;;;;;;;;;;4180309;28;20057;-41
2022/04/07 02:29:50;;;;;;;0.45;0.10;;;;;;;;;;4180266;28;20062;-42
2022/04/07 02:31:51;;;;;;;0.15;0.10;;;;;;;;;;4180335;28;20071;-41
2022/04/07 02:33:53;;;;;;;0.17;0.17;;;;;;;;;;4180103;28;20072;-41
2022/04/07 02:35:54;;;;;;;0.10;0.10;;;;;;;;;;4180181;28;20064;-42
2022/04/07 02:37:58;;;;;;;0.10;0.10;;;;;;;;;;4180179;28;20393;-42
2022/04/07 02:40:00;;;;;;;0.57;0.15;;;;;;;;;;4179508;28;20049;-43
2022/04/07 02:42:01;;;;;;;0.25;0.10;;;;;;;;;;4180126;28;20118;-43
2022/04/07 02:44:02;;;;;;;0.55;0.20;;;;;;;;;;4179954;28;20404;-42
2022/04/07 02:46:04;;;;;;;0.20;0.20;;;;;;;;;;4179997;28;20114;-42
2022/04/07 02:48:05;;;;;;;0.10;0.10;;;;;;;;;;4179921;28;20056;-42
2022/04/07 02:50:07;;;;;;;0.45;0.10;;;;;;;;;;4179389;28;20072;-41
2022/04/07 02:52:09;;;;;;;0.43;0.10;;;;;;;;;;4178604;28;20056;-41
2022/04/07 02:54:11;;;;;;;0.30;0.20;;;;;;;;;;4176685;28;20452;-42
2022/04/07 02:56:12;;;;;;;0.10;0.10;;;;;;;;;;4179265;28;20048;-42
2022/04/07 02:58:13;;;;;;;0.13;0.13;;;;;;;;;;4178642;28;20056;-42
2022/04/07 03:00:15;;;;;;;0.10;0.10;;;;;;;;;;4179539;28;20057;-41
2022/04/07 03:02:16;;;;;;;0.22;0.10;;;;;;;;;;4180194;28;20060;-41
2022/04/07 03:04:18;;;;;;;0.45;0.13;;;;;;;;;;4179069;28;20103;-43
2022/04/07 03:06:19;;;;;;;0.20;0.20;;;;;;;;;;4180142;28;20053;-42
2022/04/07 03:08:21;;;;;;;0.10;0.10;;;;;;;;;;4179095;28;20412;-42
2022/04/07 03:10:22;;;;;;;0.40;0.10;;;;;;;;;;4179748;28;20504;-42
2022/04/07 03:12:23;;;;;;;0.43;0.20;;;;;;;;;;4179553;28;20515;-42
2022/04/07 03:14:27;;;;;;;0.10;0.10;;;;;;;;;;4178386;28;20064;-43
2022/04/07 03:16:28;;;;;;;0.20;0.10;;;;;;;;;;4179834;28;20095;-42
2022/04/07 03:18:29;;;;;;;0.47;0.10;;;;;;;;;;4179392;28;20052;-41
2022/04/07 03:20:30;;;;;;;0.28;0.20;;;;;;;;;;4179859;28;20114;-42
2022/04/07 03:22:32;;;;;;;0.10;0.10;;;;;;;;;;4179704;28;20118;-42
2022/04/07 03:24:33;;;;;;;0.15;0.15;;;;;;;;;;4177550;28;20061;-42
2022/04/07 03:26:34;;;;;;;0.10;0.10;;;;;;;;;;4179423;28;20130;-42
2022/04/07 03:28:35;;;;;;;0.10;0.10;;;;;;;;;;4179367;28;20186;-42
2022/04/07 03:30:37;;;;;;;0.10;0.10;;;;;;;;;;4179458;28;20103;-42
2022/04/07 03:32:38;;;;;;;0.20;0.10;;;;;;;;;;4179556;28;20551;-41
2022/04/07 03:34:39;;;;;;;0.43;0.20;;;;;;;;;;4179310;28;20111;-41
2022/04/07 03:36:41;;;;;;;1.00;0.10;;;;;;;;;;4179297;28;20202;-41
2022/04/07 03:38:42;;;;;;;0.52;0.20;;;;;;;;;;4179101;28;20052;-42
2022/04/07 03:40:43;;;;;;;0.63;0.20;;;;;;;;;;4179120;28;20071;-42
2022/04/07 03:42:44;;;;;;;1.02;0.20;;;;;;;;;;4179359;28;20134;-41
2022/04/07 03:44:45;;;;;;;0.30;0.20;;;;;;;;;;4179019;28;20057;-41
2022/04/07 03:46:46;;;;;;;0.15;0.10;;;;;;;;;;4179451;28;20072;-42
2022/04/07 03:48:49;;;;;;;0.70;0.10;;;;;;;;;;4179060;28;20053;-41
2022/04/07 03:50:50;;;;;;;0.10;0.10;;;;;;;;;;4179145;28;20072;-42
2022/04/07 03:52:51;;;;;;;0.20;0.20;;;;;;;;;;4179230;28;20057;-42
2022/04/07 03:54:53;;;;;;;0.10;0.10;;;;;;;;;;4178541;28;20102;-42
2022/04/07 03:56:57;;;;;;;0.10;0.10;;;;;;;;;;4178960;28;20511;-42
2022/04/07 03:58:58;;;;;;;0.25;0.10;;;;;;;;;;4178779;28;20552;-43
2022/04/07 04:01:00;;;;;;;0.20;0.17;;;;;;;;;;4178897;28;20053;-41
2022/04/07 04:03:01;;;;;;;0.25;0.10;;;;;;;;;;4179118;28;20049;-42
2022/04/07 04:05:03;;;;;;;0.47;0.10;;;;;;;;;;4178950;28;20512;-42
2022/04/07 04:07:04;;;;;;;0.22;0.10;;;;;;;;;;4179315;28;20060;-42
2022/04/07 04:09:05;;;;;;;0.10;0.10;;;;;;;;;;4178567;28;20094;-41
2022/04/07 04:11:06;;;;;;;0.17;0.10;;;;;;;;;;4161460;28;20084;-43
2022/04/07 04:13:08;;;;;;;0.20;0.10;;;;;;;;;;4178807;28;20060;-42
2022/04/07 04:15:09;;;;;;;0.73;0.15;;;;;;;;;;4178919;28;20057;-41
2022/04/07 04:17:10;;;;;;;0.43;0.10;;;;;;;;;;4182241;28;20542;-43
2022/04/07 04:19:11;;;;;;;0.20;0.10;;;;;;;;;;4180890;28;20182;-42
2022/04/07 04:21:13;;;;;;;0.30;0.20;;;;;;;;;;4182281;28;20053;-42
2022/04/07 04:23:15;;;;;;;0.05;0.00;;;;;;;;;;4181891;28;20106;-41
2022/04/07 04:25:16;;;;;;;0.08;0.08;;;;;;;;;;4182260;28;20079;-42
2022/04/07 04:27:18;;;;;;;0.13;0.10;;;;;;;;;;4182166;28;20452;-41
2022/04/07 04:29:19;;;;;;;0.20;0.20;;;;;;;;;;4182053;28;20049;-42
2022/04/07 04:31:24;;;;;;;0.20;0.10;;;;;;;;;;4182172;28;20331;-42
2022/04/07 04:33:25;;;;;;;0.40;0.10;;;;;;;;;;4165697;28;20123;-41
2022/04/07 04:35:26;;;;;;;0.10;0.10;;;;;;;;;;4165852;28;20096;-41
2022/04/07 04:37:27;;;;;;;0.10;0.10;;;;;;;;;;4164332;28;20359;-42
2022/04/07 04:39:28;;;;;;;0.10;0.10;;;;;;;;;;4165165;28;20525;-42
2022/04/07 04:41:30;;;;;;;0.10;0.10;;;;;;;;;;4165222;28;20119;-42
2022/04/07 04:43:31;;;;;;;0.32;0.10;;;;;;;;;;4165345;28;20053;-42
2022/04/07 04:45:32;;;;;;;0.10;0.10;;;;;;;;;;4165435;28;20119;-43
2022/04/07 04:47:33;;;;;;;0.10;0.10;;;;;;;;;;4165731;28;20050;-41
2022/04/07 04:49:34;;;;;;;0.95;0.20;;;;;;;;;;4165491;28;20271;-42
2022/04/07 04:51:36;;;;;;;0.10;0.00;;;;;;;;;;4165393;28;20096;-41
2022/04/07 04:53:37;;;;;;;0.30;0.30;;;;;;;;;;4164881;28;20198;-42
2022/04/07 04:55:38;;;;;;;0.08;0.03;;;;;;;;;;4165211;28;20057;-42
2022/04/07 04:57:39;;;;;;;0.25;0.10;;;;;;;;;;4165424;28;20053;-41
2022/04/07 04:59:40;;;;;;;0.10;0.10;;;;;;;;;;4165029;28;20417;-41
2022/04/07 05:01:41;;;;;;;0.45;0.10;;;;;;;;;;4173221;28;20044;-42
2022/04/07 05:03:43;;;;;;;0.63;0.13;;;;;;;;;;4179562;28;20114;-41
2022/04/07 05:05:44;;;;;;;0.57;0.25;;;;;;;;;;4179832;28;20114;-42
2022/04/07 05:07:45;;;;;;;0.65;0.20;;;;;;;;;;4179658;28;20425;-41
2022/04/07 05:09:46;;;;;;;0.43;0.20;;;;;;;;;;4179278;28;20049;-41
2022/04/07 05:11:47;;;;;;;0.15;0.13;;;;;;;;;;4179461;28;20057;-42
2022/04/07 05:13:48;;;;;;;0.28;0.15;;;;;;;;;;4171992;28;20083;-43
2022/04/07 05:15:50;;;;;;;0.38;0.10;;;;;;;;;;4168102;28;20151;-42
2022/04/07 05:17:52;;;;;;;0.10;0.10;;;;;;;;;;4159573;28;20057;-42
2022/04/07 05:19:53;;;;;;;0.70;0.30;;;;;;;;;;4177413;28;20056;-42
2022/04/07 05:21:54;;;;;;;0.65;0.43;;;;;;;;;;4176119;28;20562;-40
2022/04/07 05:23:55;;;;;;;1.20;0.10;;;;;;;;;;4188466;28;20129;-43
2022/04/07 05:25:56;;;;;;;0.35;0.10;;;;;;;;;;4162634;28;20049;-42
2022/04/07 05:27:58;;;;;;;0.13;0.13;;;;;;;;;;4178258;28;20056;-42
2022/04/07 05:30:00;;;;;;;1.30;0.20;;;;;;;;;;4170923;28;20060;-41
2022/04/07 05:32:01;;;;;;;0.93;0.32;;;;;;;;;;4163140;28;20076;-43
2022/04/07 05:34:02;;;;;;;0.22;0.20;;;;;;;;;;4170655;28;20103;-41
2022/04/07 05:36:03;;;;;;;0.10;0.10;;;;;;;;;;4165047;28;20064;-42
2022/04/07 05:38:05;;;;;;;0.17;0.10;;;;;;;;;;4173279;28;20056;-43
2022/04/07 05:40:10;;;;;;;0.50;0.20;;;;;;;;;;4172408;28;20163;-42
2022/04/07 05:42:11;;;;;;;0.10;0.10;;;;;;;;;;4177286;28;20060;-42
2022/04/07 05:44:12;;;;;;;0.47;0.10;;;;;;;;;;4162596;28;20086;-42
2022/04/07 05:46:13;;;;;;;2.50;0.40;;;;;;;;;;4174635;28;20126;-42
2022/04/07 05:48:14;;;;;;;0.47;0.10;;;;;;;;;;4164062;28;20044;-42
2022/04/07 05:50:17;;;;;;;1.00;0.10;;;;;;;;;;4170790;28;20411;-42
2022/04/07 05:52:18;;;;;;;2.17;0.20;;;;;;;;;;4167580;28;20045;-41
2022/04/07 05:54:20;;;;;;;2.63;0.20;;;;;;;;;;4167267;28;20453;-42
2022/04/07 05:56:21;;;;;;;1.27;0.40;;;;;;;;;;4167928;28;20485;-42
2022/04/07 05:58:23;;;;;;;1.23;0.20;;;;;;;;;;4168581;28;20053;-43
2022/04/07 06:00:24;;;;;;;3.78;0.20;;;;;;;;;;4166508;28;20446;-42
2022/04/07 06:02:25;;;;;;;0.20;0.20;;;;;;;;;;4162518;28;20503;-41
2022/04/07 06:04:26;;;;;;;1.95;0.47;;;;;;;;;;4171756;28;20118;-42
2022/04/07 06:06:27;;;;;;;1.25;0.20;;;;;;;;;;4175797;28;20056;-42
2022/04/07 06:08:29;;;;;;;2.05;0.25;;;;;;;;;;4173388;28;20057;-43
2022/04/07 06:10:30;;;;;;;0.20;0.10;;;;;;;;;;4167716;28;20064;-43
2022/04/07 06:12:31;;;;;;;0.47;0.20;;;;;;;;;;4169134;28;20446;-42
2022/04/07 06:14:32;;;;;;;0.82;0.22;;;;;;;;;;4169887;28;20099;-42
2022/04/07 06:16:33;;;;;;;0.40;0.20;;;;;;;;;;4164839;28;20496;-41
2022/04/07 06:18:34;;;;;;;0.43;0.20;;;;;;;;;;4172741;28;20060;-41
2022/04/07 06:20:36;;;;;;;0.60;0.10;;;;;;;;;;4175692;28;20049;-42
2022/04/07 06:22:38;;;;;;;0.43;0.28;;;;;;;;;;4172073;28;20665;-42
2022/04/07 06:24:40;;;;;;;0.10;0.10;;;;;;;;;;4170356;28;20705;-41
2022/04/07 06:26:41;;;;;;;1.02;0.20;;;;;;;;;;4178790;28;20891;-42
2022/04/07 06:28:42;;;;;;;0.20;0.20;;;;;;;;;;4160097;28;20480;-42
2022/04/07 06:30:43;;;;;;;0.80;0.22;;;;;;;;;;4170878;28;21932;-41
2022/04/07 06:32:46;;;;;;;1.42;0.40;;;;;;;;;;4174062;28;20056;-42
2022/04/07 06:34:48;;;;;;;0.77;0.30;;;;;;;;;;4174170;28;20562;-42
2022/04/07 06:36:49;;;;;;;1.85;0.13;;;;;;;;;;4166780;28;20491;-42
2022/04/07 06:38:50;;;;;;;0.57;0.20;;;;;;;;;;4160974;28;20118;-42
2022/04/07 06:40:51;;;;;;;0.47;0.38;;;;;;;;;;4170820;28;20458;-43
2022/04/07 06:42:54;;;;;;;0.40;0.30;;;;;;;;;;4168414;28;20099;-42
2022/04/07 06:44:55;;;;;;;0.45;0.35;;;;;;;;;;4169917;28;20119;-41
2022/04/07 06:46:56;;;;;;;1.15;0.20;;;;;;;;;;4177256;28;20126;-42
2022/04/07 06:48:57;;;;;;;0.30;0.10;;;;;;;;;;4176170;28;20053;-41
2022/04/07 06:50:58;;;;;;;1.85;0.20;;;;;;;;;;4172925;28;20052;-42
2022/04/07 06:53:00;;;;;;;1.42;0.10;;;;;;;;;;4169124;28;20108;-42
2022/04/07 06:55:02;;;;;;;0.25;0.20;;;;;;;;;;4165116;28;20056;-43
2022/04/07 06:57:04;;;;;;;0.82;0.30;;;;;;;;;;4172447;28;20470;-42
2022/04/07 06:59:06;;;;;;;1.48;0.20;;;;;;;;;;4174346;28;20538;-42
2022/04/07 07:01:08;;;;;;;1.92;0.28;;;;;;;;;;4168986;28;20064;-42
2022/04/07 07:03:13;;;;;;;0.20;0.10;;;;;;;;;;4168095;28;20125;-42
2022/04/07 07:05:15;;;;;;;0.80;0.10;;;;;;;;;;4170569;28;20230;-42
2022/04/07 07:07:17;;;;;;;1.23;0.10;;;;;;;;;;4165954;28;20052;-43
2022/04/07 07:09:18;;;;;;;3.20;0.20;;;;;;;;;;4164811;28;20048;-42
2022/04/07 07:11:19;;;;;;;0.17;0.10;;;;;;;;;;4167787;28;20085;-42
2022/04/07 07:13:21;;;;;;;0.75;0.25;;;;;;;;;;4170173;28;20097;-43
2022/04/07 07:15:22;;;;;;;0.28;0.10;;;;;;;;;;4167744;28;20082;-43
2022/04/07 07:17:24;;;;;;;0.30;0.20;;;;;;;;;;4171841;28;20087;-43
2022/04/07 07:19:28;;;;;;;0.95;0.10;;;;;;;;;;4167253;28;20561;-43
2022/04/07 07:21:29;;;;;;;0.20;0.20;;;;;;;;;;4171486;28;20470;-42
2022/04/07 07:23:32;;;;;;;3.47;0.20;;;;;;;;;;4165004;28;20110;-43
2022/04/07 07:25:34;;;;;;;0.40;0.25;;;;;;;;;;4167816;28;20484;-42
2022/04/07 07:27:39;;;;;;;0.82;0.30;;;;;;;;;;4177453;28;20052;-42
2022/04/07 07:29:41;;;;;;;3.67;0.20;;;;;;;;;;4170356;28;20048;-43
2022/04/07 07:31:42;;;;;;;0.17;0.15;;;;;;;;;;4169163;28;20467;-43
2022/04/07 07:33:43;;;;;;;0.70;0.13;;;;;;;;;;4170128;28;20080;-42
2022/04/07 07:35:45;;;;;;;1.48;0.30;;;;;;;;;;4162292;28;20061;-43
2022/04/07 07:37:52;;;;;;;0.50;0.10;;;;;;;;;;4163667;28;20106;-42
2022/04/07 07:39:53;;;;;;;0.60;0.20;;;;;;;;;;4168133;28;20057;-42
2022/04/07 07:41:54;;;;;;;0.75;0.20;;;;;;;;;;4163773;28;20468;-41
2022/04/07 07:43:55;;;;;;;0.22;0.20;;;;;;;;;;4154010;28;20106;-44
2022/04/07 07:45:57;;;;;;;2.00;0.30;;;;;;;;;;4165087;28;20056;-43
2022/04/07 07:47:59;;;;;;;2.17;0.30;;;;;;;;;;4160086;28;20699;-44
2022/04/07 07:50:01;;;;;;;1.00;0.20;;;;;;;;;;4155310;28;20064;-43
2022/04/07 07:52:03;;;;;;;0.88;0.20;;;;;;;;;;4161107;28;20052;-43
2022/04/07 07:54:04;;;;;;;0.52;0.20;;;;;;;;;;4167832;28;20102;-43
2022/04/07 07:56:05;;;;;;;1.50;0.20;;;;;;;;;;4161845;28;20122;-43
2022/04/07 07:58:07;;;;;;;1.58;0.40;;;;;;;;;;4160445;28;20126;-43
2022/04/07 08:00:09;;;;;;;4.55;0.25;;;;;;;;;;4163223;28;20444;-43
2022/04/07 08:02:12;;;;;;;1.55;0.32;;;;;;;;;;4164577;28;20045;-43
2022/04/07 08:04:13;;;;;;;0.82;0.20;;;;;;;;;;4158051;28;20057;-45
2022/04/07 08:06:15;;;;;;;2.80;0.38;;;;;;;;;;4164667;28;20850;-44
2022/04/07 08:08:16;;;;;;;0.38;0.20;;;;;;;;;;4161768;28;20068;-43
2022/04/07 08:10:18;;;;;;;1.40;0.30;;;;;;;;;;4168673;28;20064;-42
2022/04/07 08:12:20;;;;;;;2.17;0.30;;;;;;;;;;4172912;28;20459;-44
2022/04/07 08:14:22;;;;;;;1.55;0.35;;;;;;;;;;4164620;28;20175;-44
2022/04/07 08:16:24;;;;;;;2.05;0.30;;;;;;;;;;4167322;28;20098;-42
2022/04/07 08:18:26;;;;;;;3.72;0.93;;;;;;;;;;4169911;28;20048;-44
2022/04/07 08:20:27;;;;;;;4.30;0.47;;;;;;;;;;4168558;28;20048;-43
2022/04/07 08:22:30;;;;;;;5.35;0.50;;;;;;;;;;4166496;28;20097;-43
2022/04/07 08:24:31;;;;;;;3.08;0.32;;;;;;;;;;4165533;28;20052;-42
2022/04/07 08:26:33;;;;;;;6.80;0.77;;;;;;;;;;4167630;28;20423;-44
2022/04/07 08:28:34;;;;;;;5.60;0.77;;;;;;;;;;4170546;28;20057;-44
2022/04/07 08:30:35;;;;;;;3.13;0.63;;;;;;;;;;4165012;28;20060;-45
2022/04/07 08:32:36;;;;;;;0.82;0.30;;;;;;;;;;4165436;28;20068;-42
2022/04/07 08:34:38;;;;;;;3.47;0.50;;;;;;;;;;4166752;28;20483;-42
2022/04/07 08:36:41;;;;;;;2.00;0.30;;;;;;;;;;4163692;28;20065;-44
2022/04/07 08:38:42;;;;;;;1.42;0.45;;;;;;;;;;4167280;28;20049;-44
2022/04/07 08:40:43;;;;;;;1.45;0.30;;;;;;;;;;4166238;28;20110;-43
2022/04/07 08:42:44;;;;;;;1.30;0.28;;;;;;;;;;4168022;28;20427;-40
2022/04/07 08:44:47;;;;;;;3.10;0.60;;;;;;;;;;4165572;28;20102;-43
2022/04/07 08:46:53;;;;;;;0.68;0.30;;;;;;;;;;4164741;28;20061;-43
2022/04/07 08:48:55;;;;;;;1.45;0.38;;;;;;;;;;4165244;28;20056;-42
2022/04/07 08:50:56;;;;;;;0.70;0.40;;;;;;;;;;4161706;28;20048;-43
2022/04/07 08:52:58;;;;;;;4.97;0.50;;;;;;;;;;4165069;28;20100;-43
2022/04/07 08:54:59;;;;;;;0.40;0.10;;;;;;;;;;4166184;28;22133;-43
2022/04/07 08:57:01;;;;;;;2.55;0.40;;;;;;;;;;4161407;28;20060;-43
2022/04/07 08:59:02;;;;;;;1.65;0.30;;;;;;;;;;4158569;28;20417;-43
2022/04/07 09:01:04;;;;;;;2.63;0.28;;;;;;;;;;4163511;28;20059;-44
2022/04/07 09:03:05;;;;;;;1.27;0.22;;;;;;;;;;4164680;28;20056;-43
2022/04/07 09:05:10;;;;;;;0.80;0.20;;;;;;;;;;4163199;28;20453;-42
2022/04/07 09:07:14;;;;;;;1.15;0.30;;;;;;;;;;4160140;28;20399;-43
2022/04/07 09:09:19;;;;;;;0.90;0.30;;;;;;;;;;4161989;28;20057;-44
2022/04/07 09:11:21;;;;;;;1.02;0.28;;;;;;;;;;4171312;28;20551;-43
2022/04/07 09:13:22;;;;;;;0.95;0.20;;;;;;;;;;4173610;28;20079;-41
2022/04/07 09:15:26;;;;;;;1.10;0.40;;;;;;;;;;4174109;28;20056;-43
2022/04/07 09:17:29;;;;;;;0.98;0.10;;;;;;;;;;4169559;28;20052;-43
2022/04/07 09:19:31;;;;;;;0.50;0.25;;;;;;;;;;4170881;28;20068;-42
2022/04/07 09:21:34;;;;;;;1.33;0.10;;;;;;;;;;4175612;28;20159;-42
2022/04/07 09:23:41;;;;;;;0.10;0.10;;;;;;;;;;4175654;28;20117;-41
2022/04/07 09:25:49;;;;;;;2.05;0.30;;;;;;;;;;4168394;28;20060;-41
2022/04/07 09:27:50;;;;;;;3.22;0.20;;;;;;;;;;4176251;28;20057;-43
2022/04/07 09:29:54;;;;;;;2.30;0.30;;;;;;;;;;4172019;28;20057;-44
2022/04/07 09:31:55;;;;;;;0.50;0.20;;;;;;;;;;4170913;28;20052;-41
2022/04/07 09:34:01;;;;;;;0.63;0.10;;;;;;;;;;4166277;28;20119;-43
2022/04/07 09:36:10;;;;;;;1.92;0.20;;;;;;;;;;4169266;28;20330;-42
2022/04/07 09:38:12;;;;;;;0.10;0.10;;;;;;;;;;4163580;28;20065;-43
2022/04/07 09:40:16;;;;;;;0.50;0.13;;;;;;;;;;4169840;28;20093;-42
2022/04/07 09:42:27;;;;;;;4.55;0.40;;;;;;;;;;4173914;28;20052;-43
2022/04/07 09:44:37;;;;;;;4.82;0.35;;;;;;;;;;4169292;28;20067;-41
2022/04/07 09:46:38;;;;;;;1.58;0.30;;;;;;;;;;4170999;28;20117;-42
2022/04/07 09:48:40;;;;;;;3.00;0.40;;;;;;;;;;4175284;28;20057;-43
2022/04/07 09:50:41;;;;;;;0.82;0.50;;;;;;;;;;4166041;28;20067;-44
2022/04/07 09:52:56;;;;;;;2.97;0.30;;;;;;;;;;4172651;28;20052;-42
2022/04/07 09:55:06;;;;;;;1.13;0.25;;;;;;;;;;4172305;28;20069;-43
2022/04/07 09:57:09;;;;;;;3.58;0.20;;;;;;;;;;4168812;28;20060;-41
2022/04/07 09:59:12;;;;;;;5.15;0.38;;;;;;;;;;4154922;28;20244;-43
2022/04/07 10:01:13;;;;;;;2.67;0.30;;;;;;;;;;4165393;28;20110;-42
2022/04/07 10:03:15;;;;;;;2.97;0.28;;;;;;;;;;4163320;28;20544;-44
2022/04/07 10:05:16;;;;;;;2.33;0.60;;;;;;;;;;4166784;28;20074;-43
2022/04/07 10:07:18;;;;;;;3.83;0.88;;;;;;;;;;4169168;28;20099;-44
2022/04/07 10:09:19;;;;;;;2.95;0.30;;;;;;;;;;4175595;28;20098;-42
2022/04/07 10:11:21;;;;;;;1.08;0.30;;;;;;;;;;4171160;28;20076;-43
2022/04/07 10:13:22;;;;;;;3.22;0.40;;;;;;;;;;4174634;28;20048;-43
2022/04/07 10:15:24;;;;;;;2.92;0.30;;;;;;;;;;4172100;28;20061;-43
2022/04/07 10:17:25;;;;;;;2.65;0.50;;;;;;;;;;4171392;28;20060;-42
2022/04/07 10:19:34;;;;;;;2.65;0.30;;;;;;;;;;4175050;28;20056;-44
2022/04/07 10:21:56;;;;;;;5.95;0.40;;;;;;;;;;4142457;28;20552;-43
2022/04/07 10:24:33;;;;;;;8.52;0.80;;;;;;;;;;4179536;28;20063;-43
2022/04/07 10:26:35;;;;;;;2.78;0.38;;;;;;;;;;4175833;28;20454;-43
2022/04/07 10:28:36;;;;;;;1.95;0.50;;;;;;;;;;4179250;28;20048;-41
2022/04/07 10:30:51;;;;;;;1.70;0.40;;;;;;;;;;4175162;28;20056;-42
2022/04/07 10:32:54;;;;;;;3.33;0.40;;;;;;;;;;4177907;28;20095;-42
2022/04/07 10:34:59;;;;;;;2.30;0.47;;;;;;;;;;4171120;28;20736;-42
2022/04/07 10:37:06;;;;;;;2.25;0.40;;;;;;;;;;4173531;28;20060;-43
2022/04/07 10:39:12;;;;;;;4.13;0.65;;;;;;;;;;4171481;28;20056;-42
2022/04/07 10:41:36;;;;;;;3.00;0.35;;;;;;;;;;4176468;28;20049;-43
2022/04/07 10:43:38;;;;;;;1.65;0.50;;;;;;;;;;4174802;28;21221;-43
2022/04/07 10:45:43;;;;;;;0.45;0.30;;;;;;;;;;4167925;28;20137;-44
2022/04/07 10:48:17;;;;;;;2.33;0.40;;;;;;;;;;4147982;28;20123;-44
2022/04/07 10:50:18;;;;;;;1.05;0.35;;;;;;;;;;4160632;28;20246;-43
2022/04/07 10:52:26;;;;;;;0.50;0.30;;;;;;;;;;4153864;28;20079;-41
2022/04/07 10:54:28;;;;;;;1.52;0.60;;;;;;;;;;4168015;28;20060;-43
2022/04/07 10:56:34;;;;;;;0.43;0.35;;;;;;;;;;4177984;28;20480;-43
2022/04/07 10:58:45;;;;;;;1.77;0.30;;;;;;;;;;4170336;28;20170;-42
2022/04/07 11:00:46;;;;;;;2.35;0.40;;;;;;;;;;4158724;28;20133;-44
2022/04/07 11:03:18;;;;;;;1.55;0.73;;;;;;;;;;4169604;28;20064;-43
2022/04/07 11:05:25;;;;;;;1.80;0.40;;;;;;;;;;4171331;28;20067;-43
2022/04/07 11:07:27;;;;;;;1.10;0.35;;;;;;;;;;4192734;28;20060;-41
2022/04/07 11:10:00;;;;;;;0.47;0.30;;;;;;;;;;4173034;28;20064;-42
2022/04/07 11:12:08;;;;;;;3.33;0.40;;;;;;;;;;4170408;28;20534;-43
2022/04/07 11:14:09;;;;;;;0.85;0.40;;;;;;;;;;4172356;28;20430;-43
2022/04/07 11:16:23;;;;;;;1.60;0.30;;;;;;;;;;4176962;28;20064;-42
2022/04/07 11:18:48;;;;;;;1.02;0.75;;;;;;;;;;4178594;28;20150;-43
2022/04/07 11:21:01;;;;;;;2.17;0.40;;;;;;;;;;4170471;28;20071;-42
2022/04/07 11:23:07;;;;;;;0.70;0.30;;;;;;;;;;4178267;28;20060;-43
2022/04/07 11:25:09;;;;;;;1.55;0.20;;;;;;;;;;4177937;28;20048;-42
2022/04/07 11:27:34;;;;;;;1.92;0.60;;;;;;;;;;4177730;28;20505;-42
2022/04/07 11:29:35;;;;;;;1.27;0.50;;;;;;;;;;4176051;28;20125;-42
2022/04/07 11:31:48;;;;;;;0.38;0.30;;;;;;;;;;4174600;28;20102;-42
2022/04/07 11:33:49;;;;;;;1.90;0.30;;;;;;;;;;4176872;28;20056;-43
2022/04/07 11:35:59;;;;;;;1.63;0.60;;;;;;;;;;4175531;28;20048;-42
2022/04/07 11:38:01;;;;;;;0.50;0.30;;;;;;;;;;4174001;28;20064;-42
2022/04/07 11:40:04;;;;;;;0.30;0.25;;;;;;;;;;4168108;28;20079;-43
2022/04/07 11:42:06;;;;;;;1.45;0.40;;;;;;;;;;4178147;28;20053;-44
2022/04/07 11:44:09;;;;;;;0.65;0.30;;;;;;;;;;4172520;28;20111;-43
2022/04/07 11:46:12;;;;;;;0.43;0.20;;;;;;;;;;4174505;28;20581;-42
2022/04/07 11:48:13;;;;;;;0.40;0.22;;;;;;;;;;4170031;28;20423;-42
2022/04/07 11:50:14;;;;;;;1.30;0.47;;;;;;;;;;4159515;28;20061;-43
2022/04/07 11:52:16;;;;;;;3.60;0.40;;;;;;;;;;4174699;28;20048;-42
2022/04/07 11:54:17;;;;;;;2.08;0.40;;;;;;;;;;4174262;28;20079;-41
2022/04/07 11:56:27;;;;;;;1.98;0.32;;;;;;;;;;4178983;28;20052;-42
2022/04/07 11:58:29;;;;;;;0.93;0.20;;;;;;;;;;4169834;28;20045;-42
2022/04/07 12:00:33;;;;;;;1.75;0.30;;;;;;;;;;4173687;28;20052;-43
2022/04/07 12:02:34;;;;;;;0.40;0.30;;;;;;;;;;4173081;28;20676;-43
2022/04/07 12:04:36;;;;;;;0.50;0.20;;;;;;;;;;4169090;28;21587;-43
2022/04/07 12:06:40;;;;;;;0.52;0.20;;;;;;;;;;4167698;28;20070;-43
2022/04/07 12:08:41;;;;;;;0.22;0.20;;;;;;;;;;4176817;28;20049;-42
2022/04/07 12:10:44;;;;;;;0.82;0.20;;;;;;;;;;4172203;28;20595;-43
2022/04/07 12:12:46;;;;;;;0.30;0.20;;;;;;;;;;4173595;28;20455;-42
2022/04/07 12:14:47;;;;;;;0.88;0.30;;;;;;;;;;4167354;28;20049;-43
2022/04/07 12:16:48;;;;;;;0.35;0.28;;;;;;;;;;4177512;28;20449;-42